sensor_id;sensor_type;location;lat;lon;timestamp;P1;durP1;ratioP1;P2;durP2;ratioP2
27706;SDS011;36332;51.384;0.040;2023-03-12T00:00:07;30.50;;;14.38;;
27706;SDS011;36332;51.384;0.040;2023-03-12T00:02:37;44.40;;;18.58;;
27706;SDS011;36332;51.384;0.040;2023-03-12T00:05:05;34.03;;;16.20;;
27706;SDS011;36332;51.384;0.040;2023-03-12T00:07:33;41.25;;;17.83;;
27706;SDS011;36332;51.384;0.040;2023-03-12T00:10:03;26.90;;;14.30;;
27706;SDS011;36332;51.384;0.040;2023-03-12T00:12:31;25.10;;;13.95;;
27706;SDS011;36332;51.384;0.040;2023-03-12T00:14:59;33.75;;;15.10;;
27706;SDS011;36332;51.384;0.040;2023-03-12T00:17:27;38.78;;;16.00;;
27706;SDS011;36332;51.384;0.040;2023-03-12T00:19:56;47.08;;;17.88;;
27706;SDS011;36332;51.384;0.040;2023-03-12T00:22:23;22.70;;;11.65;;
27706;SDS011;36332;51.384;0.040;2023-03-12T00:24:52;23.45;;;12.93;;
27706;SDS011;36332;51.384;0.040;2023-03-12T00:27:21;19.38;;;11.52;;
27706;SDS011;36332;51.384;0.040;2023-03-12T00:29:50;21.60;;;12.65;;
27706;SDS011;36332;51.384;0.040;2023-03-12T00:32:18;24.52;;;13.43;;
27706;SDS011;36332;51.384;0.040;2023-03-12T00:34:49;24.90;;;13.27;;
27706;SDS011;36332;51.384;0.040;2023-03-12T00:37:18;25.08;;;14.00;;
27706;SDS011;36332;51.384;0.040;2023-03-12T00:39:46;24.25;;;14.48;;
27706;SDS011;36332;51.384;0.040;2023-03-12T00:42:14;22.00;;;12.80;;
27706;SDS011;36332;51.384;0.040;2023-03-12T00:44:42;25.05;;;14.32;;
27706;SDS011;36332;51.384;0.040;2023-03-12T00:47:11;20.42;;;11.32;;
27706;SDS011;36332;51.384;0.040;2023-03-12T00:49:39;23.40;;;13.35;;
27706;SDS011;36332;51.384;0.040;2023-03-12T00:52:07;27.73;;;14.57;;
27706;SDS011;36332;51.384;0.040;2023-03-12T00:54:35;26.13;;;13.57;;
27706;SDS011;36332;51.384;0.040;2023-03-12T00:57:03;25.20;;;13.57;;
27706;SDS011;36332;51.384;0.040;2023-03-12T00:59:34;22.40;;;12.75;;
27706;SDS011;36332;51.384;0.040;2023-03-12T01:02:01;31.08;;;14.93;;
27706;SDS011;36332;51.384;0.040;2023-03-12T01:04:28;26.40;;;12.95;;
27706;SDS011;36332;51.384;0.040;2023-03-12T01:06:57;29.50;;;13.80;;
27706;SDS011;36332;51.384;0.040;2023-03-12T01:09:24;29.83;;;13.35;;
27706;SDS011;36332;51.384;0.040;2023-03-12T01:11:52;28.27;;;12.07;;
27706;SDS011;36332;51.384;0.040;2023-03-12T01:14:20;26.48;;;13.63;;
27706;SDS011;36332;51.384;0.040;2023-03-12T01:16:48;29.52;;;13.15;;
27706;SDS011;36332;51.384;0.040;2023-03-12T01:19:19;33.65;;;14.75;;
27706;SDS011;36332;51.384;0.040;2023-03-12T01:21:47;31.88;;;13.88;;
27706;SDS011;36332;51.384;0.040;2023-03-12T01:24:14;39.15;;;12.95;;
27706;SDS011;36332;51.384;0.040;2023-03-12T01:26:43;32.30;;;12.27;;
27706;SDS011;36332;51.384;0.040;2023-03-12T01:29:10;33.83;;;13.35;;
27706;SDS011;36332;51.384;0.040;2023-03-12T01:31:38;35.33;;;12.43;;
27706;SDS011;36332;51.384;0.040;2023-03-12T01:34:08;37.97;;;12.07;;
27706;SDS011;36332;51.384;0.040;2023-03-12T01:36:37;35.67;;;9.95;;
27706;SDS011;36332;51.384;0.040;2023-03-12T01:39:04;37.78;;;9.50;;
27706;SDS011;36332;51.384;0.040;2023-03-12T01:41:33;38.42;;;12.02;;
27706;SDS011;36332;51.384;0.040;2023-03-12T01:44:01;36.70;;;9.80;;
27706;SDS011;36332;51.384;0.040;2023-03-12T01:46:32;31.77;;;9.93;;
27706;SDS011;36332;51.384;0.040;2023-03-12T01:49:10;31.57;;;11.07;;
27706;SDS011;36332;51.384;0.040;2023-03-12T01:51:45;20.73;;;8.75;;
27706;SDS011;36332;51.384;0.040;2023-03-12T01:54:22;36.30;;;10.75;;
27706;SDS011;36332;51.384;0.040;2023-03-12T01:56:59;33.92;;;10.93;;
27706;SDS011;36332;51.384;0.040;2023-03-12T01:59:29;43.92;;;10.82;;
27706;SDS011;36332;51.384;0.040;2023-03-12T02:04:32;33.03;;;9.15;;
27706;SDS011;36332;51.384;0.040;2023-03-12T02:07:07;28.63;;;10.18;;
27706;SDS011;36332;51.384;0.040;2023-03-12T02:09:40;31.27;;;10.10;;
27706;SDS011;36332;51.384;0.040;2023-03-12T02:12:14;39.35;;;10.10;;
27706;SDS011;36332;51.384;0.040;2023-03-12T02:14:42;50.67;;;11.55;;
27706;SDS011;36332;51.384;0.040;2023-03-12T02:17:10;32.13;;;9.45;;
27706;SDS011;36332;51.384;0.040;2023-03-12T02:22:40;34.53;;;10.35;;
27706;SDS011;36332;51.384;0.040;2023-03-12T02:25:25;42.08;;;8.40;;
27706;SDS011;36332;51.384;0.040;2023-03-12T02:28:01;41.10;;;11.30;;
27706;SDS011;36332;51.384;0.040;2023-03-12T02:30:31;37.13;;;10.50;;
27706;SDS011;36332;51.384;0.040;2023-03-12T02:33:01;36.30;;;7.97;;
27706;SDS011;36332;51.384;0.040;2023-03-12T02:35:32;35.00;;;8.02;;
27706;SDS011;36332;51.384;0.040;2023-03-12T02:38:00;35.42;;;9.02;;
27706;SDS011;36332;51.384;0.040;2023-03-12T02:43:07;37.38;;;7.07;;
27706;SDS011;36332;51.384;0.040;2023-03-12T02:45:36;35.90;;;7.00;;
27706;SDS011;36332;51.384;0.040;2023-03-12T02:48:07;37.53;;;8.18;;
27706;SDS011;36332;51.384;0.040;2023-03-12T02:50:35;31.42;;;7.07;;
27706;SDS011;36332;51.384;0.040;2023-03-12T02:53:03;37.85;;;7.85;;
27706;SDS011;36332;51.384;0.040;2023-03-12T02:55:32;33.15;;;5.75;;
27706;SDS011;36332;51.384;0.040;2023-03-12T02:58:00;33.55;;;6.15;;
27706;SDS011;36332;51.384;0.040;2023-03-12T03:00:29;26.70;;;5.90;;
27706;SDS011;36332;51.384;0.040;2023-03-12T03:02:59;34.75;;;6.93;;
27706;SDS011;36332;51.384;0.040;2023-03-12T03:05:27;33.90;;;7.22;;
27706;SDS011;36332;51.384;0.040;2023-03-12T03:07:55;37.63;;;6.35;;
27706;SDS011;36332;51.384;0.040;2023-03-12T03:10:23;43.83;;;6.20;;
27706;SDS011;36332;51.384;0.040;2023-03-12T03:12:50;37.80;;;6.25;;
27706;SDS011;36332;51.384;0.040;2023-03-12T03:15:18;31.85;;;7.53;;
27706;SDS011;36332;51.384;0.040;2023-03-12T03:17:46;41.47;;;6.13;;
27706;SDS011;36332;51.384;0.040;2023-03-12T03:20:14;35.67;;;6.20;;
27706;SDS011;36332;51.384;0.040;2023-03-12T03:22:41;43.90;;;7.03;;
27706;SDS011;36332;51.384;0.040;2023-03-12T03:25:09;62.35;;;9.15;;
27706;SDS011;36332;51.384;0.040;2023-03-12T03:27:37;43.53;;;7.28;;
27706;SDS011;36332;51.384;0.040;2023-03-12T03:30:08;30.88;;;6.00;;
27706;SDS011;36332;51.384;0.040;2023-03-12T03:32:41;44.40;;;8.95;;
27706;SDS011;36332;51.384;0.040;2023-03-12T03:35:11;40.90;;;6.85;;
27706;SDS011;36332;51.384;0.040;2023-03-12T03:37:38;47.97;;;7.72;;
27706;SDS011;36332;51.384;0.040;2023-03-12T03:40:06;42.45;;;6.70;;
27706;SDS011;36332;51.384;0.040;2023-03-12T03:42:38;41.05;;;7.00;;
27706;SDS011;36332;51.384;0.040;2023-03-12T03:45:07;44.67;;;7.72;;
27706;SDS011;36332;51.384;0.040;2023-03-12T03:47:37;40.85;;;6.57;;
27706;SDS011;36332;51.384;0.040;2023-03-12T03:50:05;53.47;;;8.95;;
27706;SDS011;36332;51.384;0.040;2023-03-12T03:52:33;47.10;;;6.13;;
27706;SDS011;36332;51.384;0.040;2023-03-12T03:55:01;47.03;;;7.28;;
27706;SDS011;36332;51.384;0.040;2023-03-12T03:57:29;56.17;;;7.72;;
27706;SDS011;36332;51.384;0.040;2023-03-12T03:59:57;41.63;;;6.90;;
27706;SDS011;36332;51.384;0.040;2023-03-12T04:02:39;34.40;;;6.38;;
27706;SDS011;36332;51.384;0.040;2023-03-12T04:05:10;50.28;;;7.53;;
27706;SDS011;36332;51.384;0.040;2023-03-12T04:07:38;66.30;;;10.23;;
27706;SDS011;36332;51.384;0.040;2023-03-12T04:10:06;46.78;;;6.85;;
27706;SDS011;36332;51.384;0.040;2023-03-12T04:12:34;38.70;;;6.32;;
27706;SDS011;36332;51.384;0.040;2023-03-12T04:15:02;50.88;;;8.13;;
27706;SDS011;36332;51.384;0.040;2023-03-12T04:17:31;52.55;;;6.53;;
27706;SDS011;36332;51.384;0.040;2023-03-12T04:20:00;40.88;;;6.07;;
27706;SDS011;36332;51.384;0.040;2023-03-12T04:22:29;53.47;;;6.88;;
27706;SDS011;36332;51.384;0.040;2023-03-12T04:24:57;54.42;;;6.63;;
27706;SDS011;36332;51.384;0.040;2023-03-12T04:27:24;48.53;;;6.80;;
27706;SDS011;36332;51.384;0.040;2023-03-12T04:29:52;57.35;;;7.97;;
27706;SDS011;36332;51.384;0.040;2023-03-12T04:32:21;60.50;;;8.88;;
27706;SDS011;36332;51.384;0.040;2023-03-12T04:34:48;55.90;;;8.95;;
27706;SDS011;36332;51.384;0.040;2023-03-12T04:37:17;71.47;;;9.60;;
27706;SDS011;36332;51.384;0.040;2023-03-12T04:39:45;56.15;;;10.18;;
27706;SDS011;36332;51.384;0.040;2023-03-12T04:42:13;56.00;;;9.95;;
27706;SDS011;36332;51.384;0.040;2023-03-12T04:44:43;51.30;;;8.82;;
27706;SDS011;36332;51.384;0.040;2023-03-12T04:47:11;61.42;;;8.05;;
27706;SDS011;36332;51.384;0.040;2023-03-12T04:49:39;66.35;;;8.88;;
27706;SDS011;36332;51.384;0.040;2023-03-12T04:52:07;76.55;;;9.50;;
27706;SDS011;36332;51.384;0.040;2023-03-12T04:54:34;60.67;;;9.30;;
27706;SDS011;36332;51.384;0.040;2023-03-12T04:57:03;73.55;;;8.75;;
27706;SDS011;36332;51.384;0.040;2023-03-12T04:59:31;61.15;;;9.70;;
27706;SDS011;36332;51.384;0.040;2023-03-12T05:01:59;80.20;;;9.75;;
27706;SDS011;36332;51.384;0.040;2023-03-12T05:04:28;66.10;;;8.57;;
27706;SDS011;36332;51.384;0.040;2023-03-12T05:06:59;56.55;;;8.52;;
27706;SDS011;36332;51.384;0.040;2023-03-12T05:09:27;53.78;;;8.10;;
27706;SDS011;36332;51.384;0.040;2023-03-12T05:11:55;75.68;;;8.98;;
27706;SDS011;36332;51.384;0.040;2023-03-12T05:14:22;58.58;;;8.05;;
27706;SDS011;36332;51.384;0.040;2023-03-12T05:16:50;71.82;;;9.38;;
27706;SDS011;36332;51.384;0.040;2023-03-12T05:19:18;55.28;;;9.45;;
27706;SDS011;36332;51.384;0.040;2023-03-12T05:21:48;63.25;;;7.18;;
27706;SDS011;36332;51.384;0.040;2023-03-12T05:24:16;74.82;;;10.82;;
27706;SDS011;36332;51.384;0.040;2023-03-12T05:26:45;70.57;;;9.50;;
27706;SDS011;36332;51.384;0.040;2023-03-12T05:29:16;70.57;;;9.93;;
27706;SDS011;36332;51.384;0.040;2023-03-12T05:31:44;66.28;;;8.93;;
27706;SDS011;36332;51.384;0.040;2023-03-12T05:34:12;80.40;;;9.15;;
27706;SDS011;36332;51.384;0.040;2023-03-12T05:36:42;75.28;;;10.98;;
27706;SDS011;36332;51.384;0.040;2023-03-12T05:39:11;50.42;;;8.82;;
27706;SDS011;36332;51.384;0.040;2023-03-12T05:41:39;41.60;;;6.85;;
27706;SDS011;36332;51.384;0.040;2023-03-12T05:44:14;60.03;;;9.27;;
27706;SDS011;36332;51.384;0.040;2023-03-12T05:46:47;69.00;;;10.85;;
27706;SDS011;36332;51.384;0.040;2023-03-12T05:49:14;57.80;;;8.52;;
27706;SDS011;36332;51.384;0.040;2023-03-12T05:51:42;66.22;;;8.82;;
27706;SDS011;36332;51.384;0.040;2023-03-12T05:54:10;64.25;;;7.68;;
27706;SDS011;36332;51.384;0.040;2023-03-12T05:56:38;67.40;;;9.02;;
27706;SDS011;36332;51.384;0.040;2023-03-12T05:59:06;67.20;;;8.50;;
27706;SDS011;36332;51.384;0.040;2023-03-12T06:01:38;76.30;;;8.98;;
27706;SDS011;36332;51.384;0.040;2023-03-12T06:04:06;64.07;;;10.57;;
27706;SDS011;36332;51.384;0.040;2023-03-12T06:06:35;66.53;;;11.02;;
27706;SDS011;36332;51.384;0.040;2023-03-12T06:09:07;64.63;;;8.38;;
27706;SDS011;36332;51.384;0.040;2023-03-12T06:11:35;60.75;;;7.25;;
27706;SDS011;36332;51.384;0.040;2023-03-12T06:14:03;71.07;;;7.72;;
27706;SDS011;36332;51.384;0.040;2023-03-12T06:16:33;55.78;;;8.82;;
27706;SDS011;36332;51.384;0.040;2023-03-12T06:19:01;54.10;;;8.23;;
27706;SDS011;36332;51.384;0.040;2023-03-12T06:21:32;49.60;;;8.10;;
27706;SDS011;36332;51.384;0.040;2023-03-12T06:24:02;58.13;;;7.50;;
27706;SDS011;36332;51.384;0.040;2023-03-12T06:26:43;62.10;;;8.02;;
27706;SDS011;36332;51.384;0.040;2023-03-12T06:29:11;60.63;;;8.80;;
27706;SDS011;36332;51.384;0.040;2023-03-12T06:31:38;68.25;;;9.68;;
27706;SDS011;36332;51.384;0.040;2023-03-12T06:34:08;62.25;;;8.30;;
27706;SDS011;36332;51.384;0.040;2023-03-12T06:36:36;64.85;;;10.95;;
27706;SDS011;36332;51.384;0.040;2023-03-12T06:39:03;49.42;;;7.03;;
27706;SDS011;36332;51.384;0.040;2023-03-12T06:41:32;68.05;;;9.18;;
27706;SDS011;36332;51.384;0.040;2023-03-12T06:44:00;63.85;;;8.60;;
27706;SDS011;36332;51.384;0.040;2023-03-12T06:46:29;67.07;;;7.57;;
27706;SDS011;36332;51.384;0.040;2023-03-12T06:48:57;59.55;;;8.35;;
27706;SDS011;36332;51.384;0.040;2023-03-12T06:51:25;66.57;;;10.18;;
27706;SDS011;36332;51.384;0.040;2023-03-12T06:53:52;63.70;;;8.10;;
27706;SDS011;36332;51.384;0.040;2023-03-12T06:56:20;60.80;;;9.70;;
27706;SDS011;36332;51.384;0.040;2023-03-12T06:58:48;66.95;;;10.98;;
27706;SDS011;36332;51.384;0.040;2023-03-12T07:01:16;62.33;;;9.52;;
27706;SDS011;36332;51.384;0.040;2023-03-12T07:03:43;77.65;;;9.43;;
27706;SDS011;36332;51.384;0.040;2023-03-12T07:06:14;59.22;;;9.27;;
27706;SDS011;36332;51.384;0.040;2023-03-12T07:08:43;67.03;;;8.45;;
27706;SDS011;36332;51.384;0.040;2023-03-12T07:11:11;48.38;;;8.48;;
27706;SDS011;36332;51.384;0.040;2023-03-12T07:13:40;60.70;;;11.65;;
27706;SDS011;36332;51.384;0.040;2023-03-12T07:16:07;79.47;;;10.25;;
27706;SDS011;36332;51.384;0.040;2023-03-12T07:18:36;70.65;;;8.23;;
27706;SDS011;36332;51.384;0.040;2023-03-12T07:21:03;58.03;;;8.18;;
27706;SDS011;36332;51.384;0.040;2023-03-12T07:23:31;67.22;;;9.18;;
27706;SDS011;36332;51.384;0.040;2023-03-12T07:25:59;70.68;;;9.73;;
27706;SDS011;36332;51.384;0.040;2023-03-12T07:28:26;63.90;;;8.55;;
27706;SDS011;36332;51.384;0.040;2023-03-12T07:30:58;52.15;;;7.57;;
27706;SDS011;36332;51.384;0.040;2023-03-12T07:33:27;66.28;;;8.32;;
27706;SDS011;36332;51.384;0.040;2023-03-12T07:35:55;61.47;;;9.05;;
27706;SDS011;36332;51.384;0.040;2023-03-12T07:38:22;54.05;;;8.63;;
27706;SDS011;36332;51.384;0.040;2023-03-12T07:40:51;60.47;;;9.07;;
27706;SDS011;36332;51.384;0.040;2023-03-12T07:43:20;60.15;;;7.03;;
27706;SDS011;36332;51.384;0.040;2023-03-12T07:45:50;57.72;;;7.95;;
27706;SDS011;36332;51.384;0.040;2023-03-12T07:48:17;51.45;;;9.13;;
27706;SDS011;36332;51.384;0.040;2023-03-12T07:50:46;61.67;;;8.65;;
27706;SDS011;36332;51.384;0.040;2023-03-12T07:53:14;66.03;;;10.77;;
27706;SDS011;36332;51.384;0.040;2023-03-12T07:55:43;61.78;;;7.95;;
27706;SDS011;36332;51.384;0.040;2023-03-12T07:58:13;69.78;;;10.30;;
27706;SDS011;36332;51.384;0.040;2023-03-12T08:00:42;61.22;;;7.72;;
27706;SDS011;36332;51.384;0.040;2023-03-12T08:03:10;66.70;;;9.73;;
27706;SDS011;36332;51.384;0.040;2023-03-12T08:05:39;59.88;;;7.05;;
27706;SDS011;36332;51.384;0.040;2023-03-12T08:08:07;57.05;;;8.70;;
27706;SDS011;36332;51.384;0.040;2023-03-12T08:10:36;51.95;;;8.27;;
27706;SDS011;36332;51.384;0.040;2023-03-12T08:13:03;60.17;;;8.60;;
27706;SDS011;36332;51.384;0.040;2023-03-12T08:15:31;53.60;;;8.57;;
27706;SDS011;36332;51.384;0.040;2023-03-12T08:18:01;38.85;;;7.15;;
27706;SDS011;36332;51.384;0.040;2023-03-12T08:20:29;44.10;;;7.38;;
27706;SDS011;36332;51.384;0.040;2023-03-12T08:22:57;50.25;;;8.10;;
27706;SDS011;36332;51.384;0.040;2023-03-12T08:25:24;39.38;;;8.40;;
27706;SDS011;36332;51.384;0.040;2023-03-12T08:27:52;44.70;;;6.40;;
27706;SDS011;36332;51.384;0.040;2023-03-12T08:30:22;49.53;;;9.10;;
27706;SDS011;36332;51.384;0.040;2023-03-12T08:32:49;53.13;;;8.25;;
27706;SDS011;36332;51.384;0.040;2023-03-12T08:35:17;46.50;;;7.28;;
27706;SDS011;36332;51.384;0.040;2023-03-12T08:37:44;65.93;;;13.38;;
27706;SDS011;36332;51.384;0.040;2023-03-12T08:40:12;54.53;;;6.78;;
27706;SDS011;36332;51.384;0.040;2023-03-12T08:42:44;52.30;;;8.45;;
27706;SDS011;36332;51.384;0.040;2023-03-12T08:45:12;46.88;;;7.28;;
27706;SDS011;36332;51.384;0.040;2023-03-12T08:47:41;55.85;;;7.68;;
27706;SDS011;36332;51.384;0.040;2023-03-12T08:50:10;50.20;;;7.70;;
27706;SDS011;36332;51.384;0.040;2023-03-12T08:52:39;47.85;;;6.70;;
27706;SDS011;36332;51.384;0.040;2023-03-12T08:55:07;42.63;;;7.68;;
27706;SDS011;36332;51.384;0.040;2023-03-12T08:57:35;45.53;;;6.13;;
27706;SDS011;36332;51.384;0.040;2023-03-12T09:00:03;53.08;;;7.78;;
27706;SDS011;36332;51.384;0.040;2023-03-12T09:02:34;51.55;;;8.02;;
27706;SDS011;36332;51.384;0.040;2023-03-12T09:05:02;56.35;;;8.82;;
27706;SDS011;36332;51.384;0.040;2023-03-12T09:07:30;52.10;;;7.78;;
27706;SDS011;36332;51.384;0.040;2023-03-12T09:09:58;40.95;;;6.53;;
27706;SDS011;36332;51.384;0.040;2023-03-12T09:12:26;40.50;;;8.35;;
27706;SDS011;36332;51.384;0.040;2023-03-12T09:14:53;34.10;;;5.82;;
27706;SDS011;36332;51.384;0.040;2023-03-12T09:17:30;39.50;;;6.97;;
27706;SDS011;36332;51.384;0.040;2023-03-12T09:19:58;41.65;;;8.02;;
27706;SDS011;36332;51.384;0.040;2023-03-12T09:22:28;56.05;;;9.00;;
27706;SDS011;36332;51.384;0.040;2023-03-12T09:24:56;38.63;;;6.40;;
27706;SDS011;36332;51.384;0.040;2023-03-12T09:27:24;40.22;;;6.30;;
27706;SDS011;36332;51.384;0.040;2023-03-12T09:29:52;48.65;;;7.35;;
27706;SDS011;36332;51.384;0.040;2023-03-12T09:32:26;53.83;;;6.65;;
27706;SDS011;36332;51.384;0.040;2023-03-12T09:34:54;43.25;;;7.00;;
27706;SDS011;36332;51.384;0.040;2023-03-12T09:37:22;40.55;;;6.78;;
27706;SDS011;36332;51.384;0.040;2023-03-12T09:39:51;37.83;;;5.78;;
27706;SDS011;36332;51.384;0.040;2023-03-12T09:42:23;43.30;;;7.53;;
27706;SDS011;36332;51.384;0.040;2023-03-12T09:44:56;36.95;;;6.57;;
27706;SDS011;36332;51.384;0.040;2023-03-12T09:47:50;45.45;;;6.15;;
27706;SDS011;36332;51.384;0.040;2023-03-12T09:50:29;35.75;;;6.55;;
27706;SDS011;36332;51.384;0.040;2023-03-12T09:55:52;45.75;;;6.95;;
27706;SDS011;36332;51.384;0.040;2023-03-12T10:00:59;38.58;;;7.40;;
27706;SDS011;36332;51.384;0.040;2023-03-12T10:06:32;44.28;;;7.03;;
27706;SDS011;36332;51.384;0.040;2023-03-12T10:24:18;44.03;;;6.63;;
27706;SDS011;36332;51.384;0.040;2023-03-12T10:26:39;45.03;;;5.70;;
27706;SDS011;36332;51.384;0.040;2023-03-12T10:29:23;48.78;;;7.53;;
27706;SDS011;36332;51.384;0.040;2023-03-12T10:32:10;44.58;;;7.05;;
27706;SDS011;36332;51.384;0.040;2023-03-12T10:34:59;48.28;;;7.57;;
27706;SDS011;36332;51.384;0.040;2023-03-12T10:39:59;31.45;;;6.05;;
27706;SDS011;36332;51.384;0.040;2023-03-12T10:42:28;39.38;;;5.93;;
27706;SDS011;36332;51.384;0.040;2023-03-12T10:45:00;33.08;;;5.88;;
27706;SDS011;36332;51.384;0.040;2023-03-12T10:47:40;47.75;;;7.25;;
27706;SDS011;36332;51.384;0.040;2023-03-12T10:50:13;43.03;;;6.47;;
27706;SDS011;36332;51.384;0.040;2023-03-12T10:52:52;36.08;;;6.60;;
27706;SDS011;36332;51.384;0.040;2023-03-12T10:55:41;41.78;;;5.45;;
27706;SDS011;36332;51.384;0.040;2023-03-12T10:58:21;42.20;;;6.22;;
27706;SDS011;36332;51.384;0.040;2023-03-12T11:00:53;38.58;;;6.22;;
27706;SDS011;36332;51.384;0.040;2023-03-12T11:03:24;38.53;;;8.15;;
27706;SDS011;36332;51.384;0.040;2023-03-12T11:05:53;44.50;;;7.30;;
27706;SDS011;36332;51.384;0.040;2023-03-12T11:08:28;41.67;;;6.63;;
27706;SDS011;36332;51.384;0.040;2023-03-12T11:10:58;42.25;;;7.75;;
27706;SDS011;36332;51.384;0.040;2023-03-12T11:13:29;42.50;;;7.85;;
27706;SDS011;36332;51.384;0.040;2023-03-12T11:18:54;42.75;;;7.90;;
27706;SDS011;36332;51.384;0.040;2023-03-12T11:21:23;40.85;;;6.70;;
27706;SDS011;36332;51.384;0.040;2023-03-12T11:26:30;47.78;;;6.85;;
27706;SDS011;36332;51.384;0.040;2023-03-12T11:31:49;35.80;;;6.00;;
27706;SDS011;36332;51.384;0.040;2023-03-12T11:34:41;37.33;;;6.97;;
27706;SDS011;36332;51.384;0.040;2023-03-12T11:49:04;38.90;;;6.30;;
27706;SDS011;36332;51.384;0.040;2023-03-12T12:00:17;41.33;;;6.53;;
27706;SDS011;36332;51.384;0.040;2023-03-12T12:02:56;41.53;;;8.02;;
27706;SDS011;36332;51.384;0.040;2023-03-12T12:05:50;49.50;;;8.38;;
27706;SDS011;36332;51.384;0.040;2023-03-12T12:10:57;56.00;;;8.77;;
27706;SDS011;36332;51.384;0.040;2023-03-12T12:13:35;44.28;;;6.65;;
27706;SDS011;36332;51.384;0.040;2023-03-12T12:19:18;37.80;;;5.80;;
27706;SDS011;36332;51.384;0.040;2023-03-12T12:27:42;42.05;;;8.23;;
27706;SDS011;36332;51.384;0.040;2023-03-12T12:35:36;37.38;;;6.03;;
27706;SDS011;36332;51.384;0.040;2023-03-12T12:43:39;43.63;;;7.93;;
27706;SDS011;36332;51.384;0.040;2023-03-12T12:46:25;45.33;;;7.60;;
27706;SDS011;36332;51.384;0.040;2023-03-12T12:49:02;48.22;;;8.00;;
27706;SDS011;36332;51.384;0.040;2023-03-12T12:51:40;44.95;;;8.25;;
27706;SDS011;36332;51.384;0.040;2023-03-12T12:54:19;43.78;;;7.03;;
27706;SDS011;36332;51.384;0.040;2023-03-12T12:59:39;43.15;;;8.35;;
27706;SDS011;36332;51.384;0.040;2023-03-12T13:02:22;38.95;;;6.80;;
27706;SDS011;36332;51.384;0.040;2023-03-12T13:04:54;38.05;;;7.68;;
27706;SDS011;36332;51.384;0.040;2023-03-12T13:09:55;35.40;;;7.22;;
27706;SDS011;36332;51.384;0.040;2023-03-12T13:12:31;35.40;;;8.40;;
27706;SDS011;36332;51.384;0.040;2023-03-12T13:15:32;43.08;;;6.80;;
27706;SDS011;36332;51.384;0.040;2023-03-12T13:20:23;39.38;;;7.63;;
27706;SDS011;36332;51.384;0.040;2023-03-12T13:26:28;33.35;;;9.52;;
27706;SDS011;36332;51.384;0.040;2023-03-12T13:29:01;45.22;;;8.38;;
27706;SDS011;36332;51.384;0.040;2023-03-12T13:31:45;40.95;;;7.82;;
27706;SDS011;36332;51.384;0.040;2023-03-12T13:36:44;35.22;;;7.97;;
27706;SDS011;36332;51.384;0.040;2023-03-12T13:39:33;40.42;;;7.88;;
27706;SDS011;36332;51.384;0.040;2023-03-12T13:42:45;33.10;;;6.70;;
27706;SDS011;36332;51.384;0.040;2023-03-12T13:45:22;27.15;;;6.10;;
27706;SDS011;36332;51.384;0.040;2023-03-12T13:47:52;37.20;;;7.95;;
27706;SDS011;36332;51.384;0.040;2023-03-12T13:50:24;22.80;;;5.68;;
27706;SDS011;36332;51.384;0.040;2023-03-12T13:53:06;23.58;;;4.35;;
27706;SDS011;36332;51.384;0.040;2023-03-12T13:55:47;28.27;;;5.15;;
27706;SDS011;36332;51.384;0.040;2023-03-12T13:58:25;17.70;;;4.53;;
27706;SDS011;36332;51.384;0.040;2023-03-12T14:01:01;23.38;;;5.22;;
27706;SDS011;36332;51.384;0.040;2023-03-12T14:03:35;20.67;;;4.35;;
27706;SDS011;36332;51.384;0.040;2023-03-12T14:06:09;16.33;;;3.40;;
27706;SDS011;36332;51.384;0.040;2023-03-12T14:12:04;12.75;;;3.13;;
27706;SDS011;36332;51.384;0.040;2023-03-12T14:17:19;15.98;;;3.30;;
27706;SDS011;36332;51.384;0.040;2023-03-12T14:19:52;20.80;;;3.45;;
27706;SDS011;36332;51.384;0.040;2023-03-12T14:22:28;20.50;;;3.75;;
27706;SDS011;36332;51.384;0.040;2023-03-12T14:25:02;20.00;;;4.18;;
27706;SDS011;36332;51.384;0.040;2023-03-12T14:27:44;20.27;;;4.40;;
27706;SDS011;36332;51.384;0.040;2023-03-12T14:30:23;20.67;;;4.55;;
27706;SDS011;36332;51.384;0.040;2023-03-12T14:32:57;22.67;;;4.10;;
27706;SDS011;36332;51.384;0.040;2023-03-12T14:35:37;33.80;;;4.43;;
27706;SDS011;36332;51.384;0.040;2023-03-12T14:38:12;23.70;;;4.00;;
27706;SDS011;36332;51.384;0.040;2023-03-12T14:40:50;26.80;;;5.68;;
27706;SDS011;36332;51.384;0.040;2023-03-12T14:43:41;26.10;;;4.38;;
27706;SDS011;36332;51.384;0.040;2023-03-12T14:46:14;28.05;;;6.32;;
27706;SDS011;36332;51.384;0.040;2023-03-12T14:48:46;26.05;;;5.68;;
27706;SDS011;36332;51.384;0.040;2023-03-12T14:51:18;27.45;;;4.82;;
27706;SDS011;36332;51.384;0.040;2023-03-12T14:53:50;26.02;;;5.85;;
27706;SDS011;36332;51.384;0.040;2023-03-12T14:56:27;31.42;;;5.93;;
27706;SDS011;36332;51.384;0.040;2023-03-12T14:59:00;31.50;;;5.78;;
27706;SDS011;36332;51.384;0.040;2023-03-12T15:04:15;25.70;;;4.43;;
27706;SDS011;36332;51.384;0.040;2023-03-12T15:06:48;25.60;;;4.75;;
27706;SDS011;36332;51.384;0.040;2023-03-12T15:09:19;32.42;;;5.80;;
27706;SDS011;36332;51.384;0.040;2023-03-12T15:11:53;34.40;;;4.47;;
27706;SDS011;36332;51.384;0.040;2023-03-12T15:14:24;30.63;;;4.45;;
27706;SDS011;36332;51.384;0.040;2023-03-12T15:16:54;22.35;;;4.40;;
27706;SDS011;36332;51.384;0.040;2023-03-12T15:19:26;17.15;;;3.88;;
27706;SDS011;36332;51.384;0.040;2023-03-12T15:22:02;25.30;;;4.22;;
27706;SDS011;36332;51.384;0.040;2023-03-12T15:24:32;18.45;;;3.65;;
27706;SDS011;36332;51.384;0.040;2023-03-12T15:30:21;21.45;;;2.95;;
27706;SDS011;36332;51.384;0.040;2023-03-12T15:33:04;23.23;;;4.38;;
27706;SDS011;36332;51.384;0.040;2023-03-12T15:35:32;31.80;;;4.20;;
27706;SDS011;36332;51.384;0.040;2023-03-12T15:38:02;18.88;;;2.70;;
27706;SDS011;36332;51.384;0.040;2023-03-12T15:40:30;21.35;;;3.30;;
27706;SDS011;36332;51.384;0.040;2023-03-12T15:42:58;18.27;;;3.47;;
27706;SDS011;36332;51.384;0.040;2023-03-12T15:48:00;18.95;;;3.05;;
27706;SDS011;36332;51.384;0.040;2023-03-12T15:50:38;12.65;;;2.83;;
27706;SDS011;36332;51.384;0.040;2023-03-12T15:55:42;11.50;;;2.35;;
27706;SDS011;36332;51.384;0.040;2023-03-12T15:58:27;17.48;;;3.88;;
27706;SDS011;36332;51.384;0.040;2023-03-12T16:03:42;17.45;;;3.45;;
27706;SDS011;36332;51.384;0.040;2023-03-12T16:06:12;13.00;;;3.30;;
27706;SDS011;36332;51.384;0.040;2023-03-12T16:08:48;13.95;;;2.60;;
27706;SDS011;36332;51.384;0.040;2023-03-12T16:11:22;16.55;;;3.40;;
27706;SDS011;36332;51.384;0.040;2023-03-12T16:14:16;16.13;;;3.20;;
27706;SDS011;36332;51.384;0.040;2023-03-12T16:16:48;12.25;;;2.75;;
27706;SDS011;36332;51.384;0.040;2023-03-12T16:19:18;16.00;;;3.22;;
27706;SDS011;36332;51.384;0.040;2023-03-12T16:21:48;17.10;;;3.63;;
27706;SDS011;36332;51.384;0.040;2023-03-12T16:24:16;23.75;;;4.45;;
27706;SDS011;36332;51.384;0.040;2023-03-12T16:26:56;17.27;;;3.05;;
27706;SDS011;36332;51.384;0.040;2023-03-12T16:29:30;19.65;;;4.60;;
27706;SDS011;36332;51.384;0.040;2023-03-12T16:32:00;26.05;;;3.60;;
27706;SDS011;36332;51.384;0.040;2023-03-12T16:34:28;18.00;;;3.67;;
27706;SDS011;36332;51.384;0.040;2023-03-12T16:36:56;18.77;;;3.78;;
27706;SDS011;36332;51.384;0.040;2023-03-12T16:39:23;22.67;;;4.10;;
27706;SDS011;36332;51.384;0.040;2023-03-12T16:41:56;16.85;;;3.20;;
27706;SDS011;36332;51.384;0.040;2023-03-12T16:44:24;18.95;;;4.22;;
27706;SDS011;36332;51.384;0.040;2023-03-12T16:46:53;25.70;;;4.05;;
27706;SDS011;36332;51.384;0.040;2023-03-12T16:49:21;18.45;;;3.33;;
27706;SDS011;36332;51.384;0.040;2023-03-12T16:51:49;16.92;;;3.70;;